createdAt,value
2023-02-05T00:01:32.717Z,5.80
2023-02-05T00:04:00.042Z,5.80
2023-02-05T00:06:28.062Z,5.80
2023-02-05T00:08:57.306Z,5.80
2023-02-05T00:11:25.030Z,6.00
2023-02-05T00:13:52.373Z,6.00
2023-02-05T00:16:23.110Z,5.80
2023-02-05T00:18:50.625Z,5.70
2023-02-05T00:21:19.311Z,5.80
2023-02-05T00:23:47.696Z,5.80
2023-02-05T00:26:14.978Z,5.70
2023-02-05T00:28:43.473Z,5.70
2023-02-05T00:31:20.175Z,5.70
2023-02-05T00:33:49.503Z,5.60
2023-02-05T00:36:17.558Z,5.50
2023-02-05T00:38:45.542Z,5.50
2023-02-05T00:41:13.630Z,5.50
2023-02-05T00:43:40.911Z,5.80
2023-02-05T00:46:09.078Z,5.50
2023-02-05T00:48:36.300Z,5.30
2023-02-05T00:51:03.608Z,5.30
2023-02-05T00:53:30.490Z,5.30
2023-02-05T00:55:57.404Z,5.20
2023-02-05T00:58:24.666Z,5.20
2023-02-05T01:00:52.091Z,5.10
2023-02-05T01:03:20.808Z,5.30
2023-02-05T01:05:48.152Z,5.50
2023-02-05T01:08:15.371Z,5.00
2023-02-05T01:10:47.207Z,4.90
2023-02-05T01:13:17.696Z,4.90
2023-02-05T01:15:45.375Z,5.10
2023-02-05T01:18:12.572Z,4.80
2023-02-05T01:20:40.857Z,4.70
2023-02-05T01:23:07.811Z,4.60
2023-02-05T01:25:35.244Z,4.60
2023-02-05T01:28:02.433Z,4.70
2023-02-05T01:30:29.603Z,4.90
2023-02-05T01:32:56.538Z,4.80
2023-02-05T01:35:24.494Z,5.00
2023-02-05T01:37:51.406Z,4.80
2023-02-05T01:40:19.353Z,4.60
2023-02-05T01:42:46.580Z,4.60
2023-02-05T01:45:22.702Z,4.60
2023-02-05T01:47:52.855Z,4.50
2023-02-05T01:50:23.410Z,4.50
2023-02-05T01:52:51.143Z,4.50
2023-02-05T01:55:18.205Z,4.50
2023-02-05T01:57:46.569Z,4.30
2023-02-05T02:00:14.871Z,4.30
2023-02-05T02:02:42.207Z,4.30
2023-02-05T02:05:12.222Z,4.30
2023-02-05T02:07:39.437Z,4.20
2023-02-05T02:10:08.305Z,4.20
2023-02-05T02:12:38.036Z,4.20
2023-02-05T02:15:06.688Z,4.30
2023-02-05T02:41:06.302Z,3.60
2023-02-05T02:44:18.951Z,3.90
2023-02-05T02:47:27.212Z,3.80
2023-02-05T02:50:22.240Z,3.80
2023-02-05T02:57:04.550Z,3.80
2023-02-05T02:59:48.391Z,3.80
2023-02-05T03:02:27.254Z,3.70
2023-02-05T04:26:26.883Z,3.20
2023-02-05T05:02:54.476Z,2.90
2023-02-05T05:48:11.802Z,2.70
2023-02-05T05:51:44.500Z,2.70
2023-02-05T06:04:35.352Z,2.70
2023-02-05T06:07:02.933Z,3.10
2023-02-05T06:09:30.023Z,2.80
2023-02-05T06:12:17.067Z,2.70
2023-02-05T06:18:10.439Z,2.70
2023-02-05T06:21:11.089Z,2.70
2023-02-05T06:23:38.490Z,2.70
2023-02-05T06:26:05.626Z,2.90
2023-02-05T06:28:33.703Z,2.70
2023-02-05T06:31:09.592Z,2.80
2023-02-05T06:34:05.482Z,2.90
2023-02-05T06:36:47.747Z,2.90
2023-02-05T06:39:18.374Z,2.90
2023-02-05T06:51:17.046Z,2.80
2023-02-05T07:02:21.474Z,2.80
2023-02-05T07:04:53.806Z,2.80
2023-02-05T07:08:11.851Z,2.70
2023-02-05T07:12:00.714Z,2.80
2023-02-05T07:18:34.553Z,2.80
2023-02-05T07:21:07.092Z,2.80
2023-02-05T07:23:54.564Z,2.70
2023-02-05T07:39:40.063Z,3.10
2023-02-05T07:47:17.916Z,3.40
2023-02-05T07:50:54.580Z,3.20
2023-02-05T07:53:28.407Z,3.30
2023-02-05T07:55:56.459Z,3.50
2023-02-05T07:58:23.736Z,3.60
2023-02-05T08:00:52.048Z,3.70
2023-02-05T08:03:19.045Z,3.70
2023-02-05T08:05:46.058Z,3.80
2023-02-05T08:08:13.230Z,3.80
2023-02-05T08:10:40.168Z,3.80
2023-02-05T08:13:07.120Z,3.90
2023-02-05T08:15:34.428Z,4.00
2023-02-05T08:18:01.639Z,4.20
2023-02-05T08:20:28.729Z,4.50
2023-02-05T08:22:55.762Z,4.60
2023-02-05T08:25:22.641Z,4.40
2023-02-05T08:27:49.716Z,4.40
2023-02-05T08:30:20.233Z,4.70
2023-02-05T08:32:49.325Z,4.50
2023-02-05T08:35:17.125Z,4.70
2023-02-05T08:37:44.501Z,4.70
2023-02-05T08:40:12.015Z,4.90
2023-02-05T08:42:38.961Z,4.80
2023-02-05T08:45:09.005Z,4.90
2023-02-05T08:47:36.557Z,4.90
2023-02-05T08:50:05.808Z,4.90
2023-02-05T08:52:34.265Z,5.00
2023-02-05T08:55:01.274Z,5.00
2023-02-05T08:57:30.059Z,5.00
2023-02-05T09:00:03.133Z,5.00
2023-02-05T09:02:32.154Z,5.00
2023-02-05T09:05:09.853Z,4.90
2023-02-05T09:07:39.139Z,5.00
2023-02-05T09:10:10.978Z,4.90
2023-02-05T09:12:48.464Z,5.30
2023-02-05T09:15:15.478Z,5.00
2023-02-05T09:17:42.451Z,5.00
2023-02-05T09:20:10.492Z,5.00
2023-02-05T09:22:38.711Z,5.00
2023-02-05T09:25:07.330Z,5.00
2023-02-05T09:27:34.455Z,5.00
2023-02-05T09:30:01.438Z,5.10
2023-02-05T09:32:28.536Z,5.10
2023-02-05T09:34:55.526Z,5.30
2023-02-05T09:37:22.867Z,5.10
2023-02-05T09:40:19.563Z,5.40
2023-02-05T09:43:35.427Z,5.30
2023-02-05T09:46:19.187Z,5.20
2023-02-05T09:48:49.941Z,5.20
2023-02-05T09:51:32.904Z,5.20
2023-02-05T09:54:06.658Z,5.30
2023-02-05T09:56:36.267Z,5.30
2023-02-05T09:59:05.570Z,5.50
2023-02-05T10:01:49.833Z,5.60
2023-02-05T10:04:17.096Z,5.50
2023-02-05T10:06:59.403Z,5.50
2023-02-05T10:09:37.492Z,5.50
2023-02-05T10:12:42.045Z,5.60
2023-02-05T10:15:20.932Z,5.60
2023-02-05T10:18:35.386Z,5.10
2023-02-05T10:21:39.332Z,5.60
2023-02-05T10:24:27.571Z,5.50
2023-02-05T10:27:21.971Z,5.60
2023-02-05T10:30:07.262Z,5.60
2023-02-05T10:32:44.012Z,5.70
2023-02-05T10:35:59.442Z,5.70
2023-02-05T10:38:31.340Z,5.70
2023-02-05T10:41:06.215Z,5.80
2023-02-05T10:43:41.091Z,5.80
2023-02-05T10:46:13.747Z,5.80
2023-02-05T10:48:54.478Z,5.80
2023-02-05T10:51:41.806Z,5.80
2023-02-05T10:54:29.546Z,5.90
2023-02-05T10:56:58.499Z,5.80
2023-02-05T10:59:38.099Z,5.80
2023-02-05T11:02:06.439Z,5.80
2023-02-05T11:04:46.128Z,5.70
2023-02-05T11:07:14.175Z,5.70
2023-02-05T11:09:41.198Z,5.80
2023-02-05T11:12:31.447Z,5.70
2023-02-05T11:15:01.014Z,5.80
2023-02-05T11:17:36.303Z,5.80
2023-02-05T11:20:18.639Z,6.20
2023-02-05T11:22:48.671Z,6.00
2023-02-05T11:25:16.951Z,6.00
2023-02-05T11:27:55.489Z,6.10
2023-02-05T11:30:51.546Z,6.10
2023-02-05T11:33:22.234Z,6.10
2023-02-05T11:36:05.446Z,6.10
2023-02-05T11:38:51.390Z,6.10
2023-02-05T11:41:51.933Z,6.00
2023-02-05T11:44:30.585Z,6.10
2023-02-05T11:47:01.648Z,6.00
2023-02-05T11:49:34.947Z,6.00
2023-02-05T11:52:13.166Z,6.00
2023-02-05T11:54:46.112Z,5.90
2023-02-05T11:57:21.821Z,6.00
2023-02-05T12:00:18.371Z,6.10
2023-02-05T12:02:45.809Z,6.20
2023-02-05T12:05:20.084Z,6.30
2023-02-05T12:08:11.464Z,6.30
2023-02-05T12:10:58.145Z,6.40
2023-02-05T12:13:38.071Z,6.40
2023-02-05T12:16:11.942Z,6.50
2023-02-05T12:19:00.453Z,6.70
2023-02-05T12:21:42.453Z,6.80
2023-02-05T12:24:18.579Z,6.80
2023-02-05T12:26:48.138Z,7.10
2023-02-05T12:29:53.066Z,7.30
2023-02-05T12:32:38.317Z,7.40
2023-02-05T12:35:20.674Z,7.50
2023-02-05T12:37:52.465Z,7.50
2023-02-05T12:40:34.446Z,7.60
2023-02-05T12:43:15.127Z,7.60
2023-02-05T12:46:06.485Z,7.60
2023-02-05T12:49:18.423Z,7.50
2023-02-05T12:52:03.307Z,7.50
2023-02-05T12:54:46.396Z,7.40
2023-02-05T12:57:20.750Z,7.30
2023-02-05T13:00:00.695Z,7.20
2023-02-05T13:02:54.855Z,7.30
2023-02-05T13:05:34.517Z,7.10
2023-02-05T13:08:23.269Z,7.00
2023-02-05T13:11:09.142Z,6.90
2023-02-05T13:13:48.208Z,6.80
2023-02-05T13:16:18.412Z,6.70
2023-02-05T13:19:00.788Z,6.80
2023-02-05T13:21:47.512Z,6.80
2023-02-05T13:24:53.113Z,6.80
2023-02-05T13:27:44.722Z,6.80
2023-02-05T13:30:18.725Z,6.60
2023-02-05T13:32:50.645Z,6.80
2023-02-05T13:35:18.055Z,6.90
2023-02-05T13:38:20.112Z,7.10
2023-02-05T13:40:50.199Z,7.20
2023-02-05T13:43:41.483Z,7.30
2023-02-05T13:46:28.713Z,7.40
2023-02-05T13:48:55.564Z,7.40
2023-02-05T13:51:38.147Z,7.40
2023-02-05T13:54:36.119Z,7.30
2023-02-05T13:57:40.565Z,7.20
2023-02-05T14:00:12.483Z,7.20
2023-02-05T14:02:46.234Z,7.10
2023-02-05T14:05:14.261Z,7.10
2023-02-05T14:07:49.660Z,7.00
2023-02-05T14:10:27.830Z,7.00
2023-02-05T14:13:21.076Z,7.00
2023-02-05T14:15:48.566Z,7.00
2023-02-05T14:18:37.726Z,6.90
2023-02-05T14:21:27.917Z,6.90
2023-02-05T14:23:56.957Z,6.90
2023-02-05T14:26:48.429Z,6.90
2023-02-05T14:29:42.655Z,7.00
2023-02-05T14:32:34.158Z,7.00
2023-02-05T14:35:23.860Z,7.20
2023-02-05T14:37:51.019Z,7.30
2023-02-05T14:40:23.640Z,7.50
2023-02-05T14:43:09.631Z,7.60
2023-02-05T14:45:47.634Z,7.80
2023-02-05T14:48:33.636Z,7.80
2023-02-05T14:51:06.566Z,7.80
2023-02-05T14:53:36.550Z,7.80
2023-02-05T14:56:05.195Z,7.80
2023-02-05T14:58:44.906Z,7.70
2023-02-05T15:01:33.318Z,7.60
2023-02-05T15:04:04.881Z,7.70
2023-02-05T15:06:40.988Z,8.00
2023-02-05T15:09:24.471Z,7.50
2023-02-05T15:12:22.330Z,7.40
2023-02-05T15:14:59.106Z,7.40
2023-02-05T15:17:29.242Z,7.20
2023-02-05T15:20:18.090Z,6.80
2023-02-05T15:22:55.300Z,7.10
2023-02-05T15:25:22.134Z,7.00
2023-02-05T15:37:08.172Z,6.40
2023-02-05T15:44:47.994Z,6.40
2023-02-05T15:47:23.506Z,6.30
2023-02-05T20:57:37.064Z,3.70
